Time;durP1;ratioP1;P1;durP2;ratioP2;P2;SDS_P1;SDS_P2;PMS_P1;PMS_P2;Temp;Humidity;BMP_temperature;BMP_pressure;BME280_temperature;BME280_humidity;BME280_pressure;Samples;Min_cycle;Max_cycle;Signal;HPM_P1;HPM_P2
2021/11/04 00:00:49;;;;;;;8.88;7.13;;;;;;;7.87;nan;99028.75;5049114;28;20064;-78
2021/11/04 00:03:15;;;;;;;7.80;6.47;;;;;;;7.84;nan;99015.91;5049940;28;20048;-78
2021/11/04 00:05:40;;;;;;;8.38;6.22;;;;;;;7.86;nan;99006.88;5047514;28;20029;-78
2021/11/04 00:08:06;;;;;;;8.68;6.40;;;;;;;7.87;nan;98992.72;5049968;28;20037;-78
2021/11/04 00:10:33;;;;;;;8.15;6.07;;;;;;;7.85;nan;98981.53;5048562;28;20071;-78
2021/11/04 00:12:58;;;;;;;;;;;;;;;7.82;nan;98975.81;5050195;28;20029;-78
2021/11/04 00:15:23;;;;;;;;;;;;;;;7.78;nan;98966.63;5049143;28;19927;-78
2021/11/04 00:17:49;;;;;;;;;;;;;;;7.73;nan;98964.50;5047384;28;20132;-78
2021/11/04 00:20:15;;;;;;;;;;;;;;;7.73;nan;98964.50;5051085;28;19917;-78
2021/11/04 00:22:41;;;;;;;;;;;;;;;7.71;nan;98960.41;5049242;28;19943;-78
2021/11/04 00:25:08;;;;;;;6.63;5.57;;;;;;;7.71;nan;98961.22;5050734;28;19916;-78
2021/11/04 00:27:34;;;;;;;5.17;4.67;;;;;;;7.79;nan;98957.72;5049934;28;20448;-78
2021/11/04 00:29:59;;;;;;;5.60;4.10;;;;;;;7.91;nan;98958.97;5049971;28;20502;-78
2021/11/04 00:32:24;;;;;;;6.57;5.05;;;;;;;7.82;nan;98960.84;5049359;28;20102;-78
2021/11/04 00:34:50;;;;;;;6.10;4.78;;;;;;;7.81;nan;98961.81;5049235;28;20036;-78
2021/11/04 00:37:15;;;;;;;5.17;4.37;;;;;;;7.94;nan;98976.25;5049680;28;20394;-78
2021/11/04 00:39:41;;;;;;;6.35;5.35;;;;;;;7.95;nan;98998.94;5047802;28;20080;-78
2021/11/04 00:42:06;;;;;;;7.63;5.80;;;;;;;7.96;nan;99011.09;5049869;28;20102;-78
2021/11/04 00:44:31;;;;;;;7.20;5.82;;;;;;;7.96;nan;99009.28;5051950;28;20140;-78
2021/11/04 00:46:57;;;;;;;9.18;6.18;;;;;;;7.94;nan;99007.84;5051145;28;20124;-78
2021/11/04 00:49:22;;;;;;;7.03;5.53;;;;;;;7.92;nan;99009.81;5048819;28;20535;-78
2021/11/04 00:51:47;;;;;;;6.35;4.90;;;;;;;7.89;nan;99008.34;5050914;28;20036;-78
2021/11/04 00:54:13;;;;;;;6.60;5.10;;;;;;;7.92;nan;99009.81;5049489;28;20037;-78
2021/11/04 00:56:38;;;;;;;8.50;5.93;;;;;;;7.94;nan;98998.13;5051794;28;20044;-78
2021/11/04 00:59:04;;;;;;;4.33;3.80;;;;;;;7.88;nan;98991.72;5049415;28;20526;-78
2021/11/04 01:01:29;;;;;;;4.03;3.50;;;;;;;8.02;nan;98989.34;5049947;28;20428;-78
2021/11/04 01:03:54;;;;;;;5.00;4.20;;;;;;;7.96;nan;98988.25;5048446;28;20082;-78
2021/11/04 01:06:21;;;;;;;4.63;3.73;;;;;;;7.97;nan;98981.16;5049526;28;20490;-78
2021/11/04 01:08:48;;;;;;;4.63;3.58;;;;;;;8.09;nan;98983.22;5047778;28;20931;-78
2021/11/04 01:11:15;;;;;;;4.68;3.78;;;;;;;8.07;nan;98981.75;5050901;28;20104;-78
2021/11/04 01:13:41;;;;;;;5.93;4.85;;;;;;;8.11;nan;98974.34;5049333;28;20040;-78
2021/11/04 01:16:07;;;;;;;4.85;4.05;;;;;;;8.09;nan;98971.88;5047494;28;20413;-78
2021/11/04 01:18:32;;;;;;;5.43;3.83;;;;;;;8.08;nan;98972.88;5049686;28;20029;-78
2021/11/04 01:20:58;;;;;;;5.90;4.60;;;;;;;8.08;nan;98986.03;5049805;28;20363;-78
2021/11/04 01:23:23;;;;;;;6.88;4.80;;;;;;;8.05;nan;98986.38;5049535;28;20041;-78
2021/11/04 01:25:48;;;;;;;6.68;5.22;;;;;;;8.03;nan;98986.56;5050885;28;20465;-78
2021/11/04 01:28:15;;;;;;;7.15;5.72;;;;;;;8.08;nan;98996.56;5048151;28;20397;-78
2021/11/04 01:30:40;;;;;;;6.13;5.20;;;;;;;8.04;nan;99008.44;5050971;28;20064;-78
2021/11/04 01:33:06;;;;;;;6.75;5.70;;;;;;;8.02;nan;99008.59;5045474;28;20080;-78
2021/11/04 01:35:32;;;;;;;7.95;5.88;;;;;;;7.97;nan;99010.09;5047859;28;20458;-78
2021/11/04 01:38:02;;;;;;;6.05;5.05;;;;;;;7.86;nan;99017.41;5050454;28;20040;-78
2021/11/04 01:40:27;;;;;;;8.30;5.35;;;;;;;7.90;nan;99027.56;5050803;28;20547;-78
2021/11/04 01:42:53;;;;;;;6.57;5.55;;;;;;;7.90;nan;99028.38;5049726;28;20032;-78
2021/11/04 01:45:19;;;;;;;5.68;5.00;;;;;;;7.86;nan;99032.34;5050912;28;20052;-78
2021/11/04 01:47:48;;;;;;;7.88;5.25;;;;;;;7.87;nan;99039.28;5050520;28;20032;-78
2021/11/04 01:50:18;;;;;;;6.43;4.60;;;;;;;7.81;nan;99034.69;5049918;28;20063;-78
2021/11/04 01:52:44;;;;;;;7.95;5.85;;;;;;;7.85;nan;99036.00;5050790;28;20065;-78
2021/11/04 01:55:14;;;;;;;6.93;5.82;;;;;;;7.88;nan;99038.25;5050385;28;20087;-78
2021/11/04 01:57:39;;;;;;;6.10;5.10;;;;;;;7.82;nan;99031.88;5047585;28;20029;-78
2021/11/04 02:00:06;;;;;;;4.50;3.80;;;;;;;7.78;nan;99025.31;5049270;28;20408;-78
2021/11/04 02:02:36;;;;;;;6.53;4.97;;;;;;;7.81;nan;99017.06;5049045;28;20525;-78
2021/11/04 02:05:07;;;;;;;5.80;4.93;;;;;;;7.81;nan;99006.53;5050458;28;20032;-78
2021/11/04 02:07:52;;;;;;;;;;;;;;;7.87;nan;99010.31;5051049;28;20032;-78
2021/11/04 02:10:59;;;;;;;7.25;6.10;;;;;;;7.87;nan;99013.78;5048842;28;20119;-78
2021/11/04 02:14:02;;;;;;;7.35;5.20;;;;;;;7.91;nan;99006.34;5026873;28;20467;-78
2021/11/04 02:16:28;;;;;;;;;;;;;;;7.92;nan;99004.53;4970764;28;20046;-78
2021/11/04 02:18:56;;;;;;;7.95;5.75;;;;;;;7.88;nan;99004.88;5036027;28;19920;-78
2021/11/04 02:22:01;;;;;;;7.55;6.25;;;;;;;7.89;nan;98992.56;5047848;28;21117;-78
2021/11/04 02:25:04;;;;;;;8.52;6.75;;;;;;;7.89;nan;98992.56;5047950;28;20032;-79
2021/11/04 02:27:30;;;;;;;7.45;6.20;;;;;;;7.88;nan;98980.38;5020105;28;20037;-78
2021/11/04 02:29:56;;;;;;;7.00;5.65;;;;;;;7.92;nan;98983.50;5025943;28;20048;-78
2021/11/04 02:32:23;;;;;;;7.90;6.50;;;;;;;7.87;nan;98990.09;5034759;28;20043;-78
2021/11/04 02:34:48;;;;;;;;;;;;;;;7.84;nan;98995.69;5049661;28;20112;-78
2021/11/04 02:37:14;;;;;;;8.87;5.53;;;;;;;7.71;nan;98991.97;5048453;28;20377;-78
2021/11/04 02:39:41;;;;;;;8.40;5.18;;;;;;;7.66;nan;98989.84;5050867;28;20681;-78
2021/11/04 02:42:07;;;;;;;5.90;4.30;;;;;;;7.61;nan;98986.91;5045681;28;20034;-78
2021/11/04 02:44:35;;;;;;;5.80;4.10;;;;;;;7.63;nan;98991.00;5049710;28;20057;-78
2021/11/04 02:47:01;;;;;;;4.20;3.35;;;;;;;7.65;nan;98998.72;5047757;28;20928;-78
2021/11/04 02:49:27;;;;;;;4.15;3.35;;;;;;;7.65;nan;98996.09;5050268;28;20043;-78
2021/11/04 02:51:53;;;;;;;5.43;3.70;;;;;;;7.67;nan;99002.00;5049482;28;20489;-78
2021/11/04 02:54:19;;;;;;;3.63;2.25;;;;;;;7.69;nan;99007.09;5047608;28;20417;-78
2021/11/04 02:56:50;;;;;;;3.10;2.35;;;;;;;7.71;nan;99010.38;5049287;28;20516;-78
2021/11/04 02:59:17;;;;;;;4.35;2.80;;;;;;;7.69;nan;99015.81;5050375;28;20389;-78
2021/11/04 03:01:44;;;;;;;5.10;3.17;;;;;;;7.68;nan;99022.06;5048736;28;20056;-78
2021/11/04 03:04:11;;;;;;;5.20;3.10;;;;;;;7.57;nan;99032.97;5047013;28;20033;-78
2021/11/04 03:06:37;;;;;;;4.68;3.40;;;;;;;7.50;nan;99042.50;5048910;28;20029;-78
2021/11/04 03:09:03;;;;;;;;;;;;;;;7.51;nan;99044.13;5050263;28;20093;-78
2021/11/04 03:11:28;;;;;;;;;;;;;;;7.48;nan;99053.19;5049631;28;19917;-78
2021/11/04 03:13:54;;;;;;;;;;;;;;;7.54;nan;99059.59;5053585;28;19913;-78
2021/11/04 03:16:21;;;;;;;4.10;2.83;;;;;;;7.55;nan;99059.41;5051939;28;20423;-78
2021/11/04 03:18:46;;;;;;;4.93;3.00;;;;;;;7.56;nan;99058.44;5053233;28;20338;-78
2021/11/04 03:21:14;;;;;;;4.00;2.83;;;;;;;7.56;nan;99062.88;5053811;28;20601;-78
2021/11/04 03:23:40;;;;;;;3.42;2.35;;;;;;;7.66;nan;99059.06;5050236;28;20792;-78
2021/11/04 03:26:05;;;;;;;3.78;2.63;;;;;;;7.59;nan;99052.84;5052632;28;20021;-78
2021/11/04 03:28:33;;;;;;;3.65;2.70;;;;;;;7.59;nan;99058.09;5052745;28;20536;-78
2021/11/04 03:30:59;;;;;;;4.07;2.60;;;;;;;7.56;nan;99058.44;5053787;28;20051;-78
2021/11/04 03:33:27;;;;;;;4.68;3.45;;;;;;;7.54;nan;99065.69;5051709;28;20044;-78
2021/11/04 03:35:55;;;;;;;3.28;2.53;;;;;;;7.45;nan;99064.88;5052544;28;20372;-78
2021/11/04 03:38:21;;;;;;;;;;;;;;;7.45;nan;99067.50;5053557;28;20390;-78
2021/11/04 03:40:46;;;;;;;3.28;2.70;;;;;;;7.39;nan;99070.81;5053187;28;19923;-78
2021/11/04 03:43:13;;;;;;;2.92;2.40;;;;;;;7.37;nan;99067.53;5052149;28;20065;-77
2021/11/04 03:45:39;;;;;;;4.38;3.15;;;;;;;7.42;nan;99065.22;5051752;28;20033;-77
2021/11/04 03:48:06;;;;;;;4.10;2.72;;;;;;;7.36;nan;99073.75;5052214;28;20576;-77
2021/11/04 03:50:33;;;;;;;3.88;2.80;;;;;;;7.25;nan;99066.22;5050583;28;20041;-77
2021/11/04 03:52:59;;;;;;;3.75;2.78;;;;;;;7.23;nan;99066.38;5052369;28;20033;-78
2021/11/04 03:55:25;;;;;;;3.80;2.70;;;;;;;7.19;nan;99070.31;5052545;28;20067;-78
2021/11/04 03:57:52;;;;;;;3.47;2.63;;;;;;;7.18;nan;99068.69;5052614;28;20377;-78
2021/11/04 04:00:18;;;;;;;4.05;2.92;;;;;;;7.16;nan;99068.03;5052118;28;20033;-77
2021/11/04 04:02:46;;;;;;;4.10;2.95;;;;;;;7.14;nan;99063.94;5051476;28;20574;-77
2021/11/04 04:05:13;;;;;;;3.92;2.95;;;;;;;7.14;nan;99053.41;5051682;28;20035;-77
2021/11/04 04:07:38;;;;;;;3.40;2.67;;;;;;;7.11;nan;99053.75;5050271;28;20420;-77
2021/11/04 04:10:04;;;;;;;4.43;3.35;;;;;;;7.03;nan;99054.56;5051126;28;20033;-77
2021/11/04 04:12:29;;;;;;;4.57;3.50;;;;;;;7.13;nan;99051.78;5051903;28;20068;-77
2021/11/04 04:14:55;;;;;;;4.10;3.15;;;;;;;7.05;nan;99064.91;5051191;28;20040;-78
2021/11/04 04:17:21;;;;;;;4.53;3.72;;;;;;;7.00;nan;99053.09;5049344;28;20120;-77
2021/11/04 04:19:48;;;;;;;4.93;3.88;;;;;;;6.96;nan;99058.84;5051027;28;20055;-77
2021/11/04 04:22:13;;;;;;;5.63;3.72;;;;;;;7.00;nan;99053.09;5050659;28;20033;-77
2021/11/04 04:24:38;;;;;;;4.55;3.95;;;;;;;6.98;nan;99048.97;5050237;28;20043;-77
2021/11/04 04:27:04;;;;;;;5.32;4.32;;;;;;;6.85;nan;99049.50;5051969;28;20036;-77
2021/11/04 04:29:30;;;;;;;6.63;5.43;;;;;;;6.93;nan;99054.72;5051526;28;20036;-77
2021/11/04 04:31:55;;;;;;;5.40;4.40;;;;;;;6.78;nan;99053.75;5049197;28;20037;-78
2021/11/04 04:34:20;;;;;;;;;;;;;;;6.71;nan;99052.75;5051918;28;20159;-78
2021/11/04 04:36:46;;;;;;;6.40;4.70;;;;;;;6.76;nan;99053.09;5051720;28;19960;-78
2021/11/04 04:39:11;;;;;;;6.13;4.70;;;;;;;6.62;nan;99049.31;5051042;28;20095;-78
2021/11/04 04:41:37;;;;;;;7.40;4.85;;;;;;;6.68;nan;99047.84;5051311;28;20067;-78
2021/11/04 04:44:02;;;;;;;6.10;4.80;;;;;;;6.69;nan;99047.66;5051138;28;20443;-78
2021/11/04 04:46:28;;;;;;;7.07;5.60;;;;;;;6.71;nan;99045.69;5049372;28;20033;-78
2021/11/04 04:48:53;;;;;;;6.25;5.30;;;;;;;6.82;nan;99041.94;5051531;28;20111;-78
2021/11/04 04:51:19;;;;;;;5.15;4.20;;;;;;;6.67;nan;99041.75;5050890;28;20148;-78
2021/11/04 04:53:44;;;;;;;7.65;5.35;;;;;;;6.76;nan;99037.34;5050998;28;20114;-78
2021/11/04 04:56:09;;;;;;;7.22;4.60;;;;;;;6.75;nan;99040.97;5050415;28;20033;-78
2021/11/04 04:58:35;;;;;;;6.00;4.57;;;;;;;6.73;nan;99042.91;5050752;28;20029;-78
2021/11/04 05:01:00;;;;;;;6.32;4.82;;;;;;;6.71;nan;99048.31;5050953;28;20063;-77
2021/11/04 05:03:26;;;;;;;4.78;3.85;;;;;;;6.70;nan;99048.50;5050245;28;20025;-77
2021/11/04 05:05:51;;;;;;;6.53;4.60;;;;;;;6.76;nan;99040.78;5050961;28;20044;-78
2021/11/04 05:08:17;;;;;;;4.93;3.80;;;;;;;6.68;nan;99047.84;5050860;28;20059;-78
2021/11/04 05:10:42;;;;;;;5.38;3.78;;;;;;;6.69;nan;99042.41;5051337;28;20041;-78
2021/11/04 05:13:07;;;;;;;6.05;4.40;;;;;;;6.73;nan;99046.38;5050741;28;20083;-78
2021/11/04 05:15:32;;;;;;;5.28;3.65;;;;;;;6.69;nan;99044.22;5050296;28;20470;-78
2021/11/04 05:17:58;;;;;;;4.93;3.15;;;;;;;6.62;nan;99040.59;5049888;28;20029;-78
2021/11/04 05:20:24;;;;;;;5.22;3.70;;;;;;;6.59;nan;99052.25;5050371;28;20053;-78
2021/11/04 05:22:49;;;;;;;3.80;3.10;;;;;;;6.58;nan;99050.63;5049022;28;20036;-78
2021/11/04 05:25:14;;;;;;;4.72;3.42;;;;;;;6.59;nan;99047.81;5049128;28;20045;-78
2021/11/04 05:27:47;;;;;;;6.55;3.65;;;;;;;6.59;nan;99049.63;5051301;28;20448;-78
2021/11/04 05:30:14;;;;;;;4.43;2.95;;;;;;;6.41;nan;99055.00;5049890;28;20080;-78
2021/11/04 05:32:39;;;;;;;4.22;3.38;;;;;;;6.37;nan;99054.53;5047638;28;20094;-78
2021/11/04 05:35:05;;;;;;;5.90;3.35;;;;;;;6.41;nan;99067.31;5039927;28;20037;-78
2021/11/04 05:37:30;;;;;;;5.28;3.50;;;;;;;6.42;nan;99066.34;5050886;28;20061;-78
2021/11/04 05:39:56;;;;;;;6.32;4.43;;;;;;;6.50;nan;99066.34;5048488;28;20461;-77
2021/11/04 05:42:21;;;;;;;5.72;4.18;;;;;;;6.52;nan;99059.16;5049325;28;20044;-77
2021/11/04 05:44:46;;;;;;;8.90;4.32;;;;;;;6.46;nan;99070.28;5049708;28;20039;-77
2021/11/04 05:47:12;;;;;;;5.80;3.97;;;;;;;6.42;nan;99075.06;5048799;28;20033;-77
2021/11/04 05:49:37;;;;;;;5.85;4.35;;;;;;;6.42;nan;99072.44;5049771;28;20102;-77
2021/11/04 05:52:03;;;;;;;6.07;4.35;;;;;;;6.39;nan;99080.63;5041304;28;20056;-77
2021/11/04 05:54:28;;;;;;;6.68;4.47;;;;;;;6.37;nan;99072.91;5048343;28;20041;-77
2021/11/04 05:56:53;;;;;;;4.90;3.80;;;;;;;6.32;nan;99077.81;5050021;28;20116;-77
2021/11/04 05:59:19;;;;;;;6.22;4.78;;;;;;;6.34;nan;99075.84;5049542;28;20098;-77
2021/11/04 06:01:44;;;;;;;5.50;3.95;;;;;;;6.25;nan;99089.94;5047947;28;20583;-77
2021/11/04 06:04:10;;;;;;;5.43;3.97;;;;;;;6.18;nan;99096.00;5048941;28;20112;-77
2021/11/04 06:06:35;;;;;;;6.65;4.07;;;;;;;6.13;nan;99097.28;5049761;28;20033;-77
2021/11/04 06:09:00;;;;;;;6.97;4.68;;;;;;;6.20;nan;99105.34;5049349;28;20033;-77
2021/11/04 06:11:25;;;;;;;6.60;4.57;;;;;;;6.24;nan;99111.09;5048521;28;20033;-77
2021/11/04 06:13:51;;;;;;;6.28;4.60;;;;;;;6.24;nan;99118.97;5049608;28;20076;-77
2021/11/04 06:16:16;;;;;;;5.57;4.35;;;;;;;6.24;nan;99125.03;5049821;28;20033;-77
2021/11/04 06:18:43;;;;;;;6.93;4.90;;;;;;;6.22;nan;99120.91;5049243;28;20032;-77
2021/11/04 06:21:12;;;;;;;7.03;5.30;;;;;;;6.26;nan;99138.00;5050325;28;20060;-77
2021/11/04 06:23:38;;;;;;;7.43;5.35;;;;;;;6.29;nan;99135.91;5049527;28;20040;-77
2021/11/04 06:26:03;;;;;;;6.90;5.35;;;;;;;6.25;nan;99137.19;5047125;28;20029;-78
2021/11/04 06:28:28;;;;;;;8.43;6.28;;;;;;;6.26;nan;99145.88;5048708;28;20047;-77
2021/11/04 06:30:54;;;;;;;8.57;6.22;;;;;;;6.26;nan;99153.75;5049997;28;20078;-78
2021/11/04 06:33:19;;;;;;;10.60;7.50;;;;;;;6.26;nan;99153.75;5049956;28;20037;-77
2021/11/04 06:35:44;;;;;;;8.73;6.53;;;;;;;6.23;nan;99154.06;5049566;28;20037;-77
2021/11/04 06:38:09;;;;;;;10.13;6.63;;;;;;;6.23;nan;99161.94;5048923;28;20053;-77
2021/11/04 06:40:35;;;;;;;8.25;6.70;;;;;;;6.25;nan;99171.31;5049585;28;20040;-77
2021/11/04 06:43:00;;;;;;;10.20;8.18;;;;;;;6.33;nan;99173.13;5049268;28;20036;-77
2021/11/04 06:45:25;;;;;;;11.48;8.05;;;;;;;6.27;nan;99166.72;5049203;28;20112;-77
2021/11/04 06:47:53;;;;;;;11.93;8.40;;;;;;;6.35;nan;99171.19;5049517;28;20035;-78
2021/11/04 06:50:27;;;;;;;10.32;7.63;;;;;;;6.30;nan;99179.53;5052647;28;20106;-77
2021/11/04 06:53:09;;;;;;;9.77;7.65;;;;;;;6.29;nan;99179.69;5052226;28;20064;-77
2021/11/04 06:55:39;;;;;;;10.02;7.75;;;;;;;6.32;nan;99180.19;5046114;28;20539;-77
2021/11/04 06:58:05;;;;;;;10.48;7.85;;;;;;;6.34;nan;99187.91;5053086;28;20489;-78
2021/11/04 07:00:34;;;;;;;11.15;8.57;;;;;;;6.37;nan;99190.22;5053867;28;20063;-77
2021/11/04 07:03:13;;;;;;;10.20;7.43;;;;;;;6.28;nan;99199.03;5053785;28;20035;-78
2021/11/04 07:05:38;;;;;;;10.15;7.60;;;;;;;6.28;nan;99197.25;5049238;28;20032;-78
2021/11/04 07:08:04;;;;;;;9.35;7.55;;;;;;;6.34;nan;99207.13;5053507;28;20029;-77
2021/11/04 07:10:30;;;;;;;13.50;9.10;;;;;;;6.36;nan;99217.44;5052011;28;20033;-77
2021/11/04 07:12:56;;;;;;;11.82;8.80;;;;;;;6.47;nan;99214.56;5052294;28;20400;-77
2021/11/04 07:15:22;;;;;;;10.98;8.13;;;;;;;6.36;nan;99220.91;5052191;28;20033;-77
2021/11/04 07:17:48;;;;;;;13.35;8.82;;;;;;;6.37;nan;99227.81;5053270;28;20025;-77
2021/11/04 07:20:16;;;;;;;11.43;8.15;;;;;;;6.41;nan;99224.84;5051707;28;20119;-77
2021/11/04 07:22:48;;;;;;;9.65;7.25;;;;;;;6.35;nan;99228.94;5052261;28;20047;-77
2021/11/04 07:25:16;;;;;;;12.02;8.30;;;;;;;6.39;nan;99235.53;5050545;28;20060;-77
2021/11/04 07:27:53;;;;;;;9.93;6.97;;;;;;;6.41;nan;99235.34;5052427;28;20033;-77
2021/11/04 07:30:20;;;;;;;10.93;8.00;;;;;;;6.48;nan;99239.81;5051711;28;20044;-77
2021/11/04 07:32:49;;;;;;;10.75;7.68;;;;;;;6.51;nan;99236.91;5051456;28;20025;-77
2021/11/04 07:35:16;;;;;;;12.20;8.52;;;;;;;6.55;nan;99238.25;5051734;28;20055;-77
2021/11/04 07:37:43;;;;;;;11.90;8.18;;;;;;;6.49;nan;99252.00;5052259;28;20029;-77
2021/11/04 07:40:09;;;;;;;11.68;8.82;;;;;;;6.56;nan;99250.38;5050540;28;20063;-77
2021/11/04 07:42:36;;;;;;;13.55;8.27;;;;;;;6.54;nan;99260.22;5047363;28;20029;-77
2021/11/04 07:45:03;;;;;;;10.70;7.47;;;;;;;6.54;nan;99257.59;5048717;28;20033;-77
2021/11/04 07:47:28;;;;;;;10.32;7.28;;;;;;;6.52;nan;99264.78;5052106;28;20059;-77
2021/11/04 07:49:53;;;;;;;13.00;8.90;;;;;;;6.55;nan;99266.28;5052293;28;20481;-77
2021/11/04 07:52:19;;;;;;;10.85;7.68;;;;;;;6.56;nan;99262.69;5050873;28;20513;-77
2021/11/04 07:54:44;;;;;;;11.38;7.93;;;;;;;6.59;nan;99265.00;5050524;28;20025;-77
2021/11/04 07:57:10;;;;;;;11.32;7.85;;;;;;;6.63;nan;99268.16;5050007;28;20037;-77
2021/11/04 07:59:35;;;;;;;13.30;9.27;;;;;;;6.67;nan;99275.53;5050940;28;20040;-77
2021/11/04 08:02:01;;;;;;;23.23;14.02;;;;;;;6.71;nan;99281.31;5050450;28;20037;-77
2021/11/04 08:04:30;;;;;;;21.30;13.27;;;;;;;6.69;nan;99278.81;5044574;28;20500;-77
2021/11/04 08:06:56;;;;;;;24.65;15.05;;;;;;;6.73;nan;99280.16;5053442;28;20036;-77
2021/11/04 08:09:23;;;;;;;31.13;16.23;;;;;;;6.72;nan;99285.56;5052471;28;20416;-78
2021/11/04 08:11:48;;;;;;;31.35;18.10;;;;;;;6.74;nan;99286.25;5053703;28;20112;-78
2021/11/04 08:14:14;;;;;;;31.55;17.90;;;;;;;6.76;nan;99287.72;5053309;28;20094;-78
2021/11/04 08:16:39;;;;;;;36.25;19.00;;;;;;;6.74;nan;99280.97;5053338;28;20099;-77
2021/11/04 08:19:04;;;;;;;34.00;19.80;;;;;;;6.72;nan;99291.66;5051431;28;20404;-78
2021/11/04 08:21:30;;;;;;;35.70;20.33;;;;;;;6.74;nan;99291.50;5053011;28;20021;-77
2021/11/04 08:23:55;;;;;;;37.03;20.73;;;;;;;6.73;nan;99295.94;5050912;28;20139;-77
2021/11/04 08:26:21;;;;;;;37.72;21.45;;;;;;;6.74;nan;99300.19;5052168;28;20052;-77
2021/11/04 08:28:46;;;;;;;39.75;21.10;;;;;;;6.74;nan;99300.19;5052452;28;20048;-77
2021/11/04 08:31:12;;;;;;;41.08;22.05;;;;;;;6.75;nan;99311.53;5051841;28;20099;-77
2021/11/04 08:33:37;;;;;;;42.72;22.92;;;;;;;6.77;nan;99305.16;5051232;28;20568;-77
2021/11/04 08:36:03;;;;;;;42.22;22.55;;;;;;;6.81;nan;99316.16;5051564;28;20040;-77
2021/11/04 08:38:29;;;;;;;44.88;22.80;;;;;;;6.78;nan;99308.59;5052200;28;20044;-77
2021/11/04 08:40:54;;;;;;;39.85;21.75;;;;;;;6.79;nan;99318.13;5050937;28;20033;-77
2021/11/04 08:43:19;;;;;;;40.75;21.38;;;;;;;6.81;nan;99321.41;5052827;28;20033;-77
2021/11/04 08:45:45;;;;;;;46.17;24.88;;;;;;;6.79;nan;99318.97;5052658;28;20036;-77
2021/11/04 08:48:12;;;;;;;52.17;25.98;;;;;;;6.76;nan;99324.50;5052291;28;20033;-77
2021/11/04 08:50:37;;;;;;;49.13;24.40;;;;;;;6.74;nan;99325.66;5052017;28;20528;-77
2021/11/04 08:53:02;;;;;;;41.97;23.13;;;;;;;6.76;nan;99332.38;5050195;28;20041;-77
2021/11/04 08:55:28;;;;;;;45.45;25.33;;;;;;;6.79;nan;99333.88;5050264;28;20161;-77
2021/11/04 08:57:54;;;;;;;54.08;26.80;;;;;;;6.80;nan;99336.34;5052211;28;20033;-77
2021/11/04 09:00:20;;;;;;;46.42;24.77;;;;;;;6.80;nan;99346.88;5051613;28;20064;-78
2021/11/04 09:02:46;;;;;;;44.85;23.67;;;;;;;6.79;nan;99344.38;5051426;28;20052;-77
2021/11/04 09:05:11;;;;;;;46.78;24.33;;;;;;;6.83;nan;99350.97;5050522;28;20025;-77
2021/11/04 09:07:39;;;;;;;46.45;24.75;;;;;;;6.90;nan;99356.44;5050691;28;20033;-77
2021/11/04 09:10:07;;;;;;;46.35;24.60;;;;;;;6.87;nan;99360.22;5050283;28;20520;-77
2021/11/04 09:12:33;;;;;;;51.03;25.63;;;;;;;6.85;nan;99366.59;5051199;28;20033;-77
2021/11/04 09:14:58;;;;;;;49.78;25.63;;;;;;;6.89;nan;99366.13;5050853;28;20108;-77
2021/11/04 09:17:23;;;;;;;46.63;25.50;;;;;;;6.89;nan;99370.53;5049563;28;20041;-77
2021/11/04 09:19:51;;;;;;;49.75;25.33;;;;;;;6.79;nan;99379.38;5049405;28;20033;-77
2021/11/04 09:22:19;;;;;;;45.45;24.40;;;;;;;6.85;nan;99390.25;5048244;28;20042;-77
2021/11/04 09:24:44;;;;;;;51.05;25.88;;;;;;;6.92;nan;99386.84;5051641;28;20409;-77
2021/11/04 09:27:09;;;;;;;48.10;26.52;;;;;;;6.92;nan;99388.66;5051024;28;20033;-77
2021/11/04 09:29:36;;;;;;;58.55;27.77;;;;;;;7.00;nan;99392.13;5050354;28;20045;-77
2021/11/04 09:32:02;;;;;;;47.63;25.80;;;;;;;6.98;nan;99394.09;5048088;28;20040;-77
2021/11/04 09:34:28;;;;;;;47.33;25.65;;;;;;;7.01;nan;99401.66;5049983;28;20512;-77
2021/11/04 09:36:53;;;;;;;47.22;25.70;;;;;;;6.93;nan;99409.50;5049906;28;20126;-77
2021/11/04 09:39:18;;;;;;;55.78;26.92;;;;;;;6.96;nan;99403.09;5047786;28;20362;-77
2021/11/04 09:41:44;;;;;;;47.35;25.42;;;;;;;6.97;nan;99410.03;5049083;28;20131;-77
2021/11/04 09:44:10;;;;;;;50.03;25.88;;;;;;;6.98;nan;99412.50;5049064;28;20527;-77
2021/11/04 09:46:35;;;;;;;52.88;26.33;;;;;;;6.98;nan;99415.13;5046016;28;20032;-77
2021/11/04 09:49:01;;;;;;;43.72;24.52;;;;;;;7.01;nan;99420.06;5047543;28;20051;-77
2021/11/04 09:51:27;;;;;;;47.33;25.35;;;;;;;7.01;nan;99419.25;5049542;28;20025;-77
2021/11/04 09:53:53;;;;;;;51.97;25.40;;;;;;;7.02;nan;99429.59;5048943;28;20171;-77
2021/11/04 09:56:19;;;;;;;55.33;25.35;;;;;;;7.11;nan;99427.03;5047327;28;20049;-77
2021/11/04 09:58:44;;;;;;;50.55;25.67;;;;;;;7.05;nan;99430.25;5049821;28;20471;-77
2021/11/04 10:01:26;;;;;;;48.35;24.60;;;;;;;7.06;nan;99435.38;5049229;28;20033;-77
2021/11/04 10:03:53;;;;;;;41.42;22.80;;;;;;;7.13;nan;99444.28;5046106;28;20040;-77
2021/11/04 10:06:33;;;;;;;45.08;23.55;;;;;;;7.20;nan;99447.13;5043709;28;20041;-77
2021/11/04 10:09:02;;;;;;;41.35;22.67;;;;;;;7.20;nan;99441.88;5043526;28;20040;-77
2021/11/04 10:11:41;;;;;;;44.28;23.55;;;;;;;7.20;nan;99449.75;5044589;28;20036;-77
2021/11/04 10:14:10;;;;;;;43.95;22.33;;;;;;;7.21;nan;99448.75;5049642;28;20041;-77
2021/11/04 10:16:37;;;;;;;46.30;23.60;;;;;;;7.23;nan;99452.06;5049562;28;20060;-77
2021/11/04 10:19:08;;;;;;;43.03;23.60;;;;;;;7.23;nan;99452.88;5049996;28;20462;-77
2021/11/04 10:21:35;;;;;;;40.97;21.60;;;;;;;7.21;nan;99459.28;5048091;28;20067;-77
2021/11/04 10:24:01;;;;;;;50.38;24.45;;;;;;;7.27;nan;99469.19;5048768;28;20041;-77
2021/11/04 10:26:30;;;;;;;43.40;22.13;;;;;;;7.20;nan;99465.53;5049580;28;20175;-77
2021/11/04 10:29:01;;;;;;;38.47;20.27;;;;;;;7.22;nan;99466.16;5050677;28;20025;-77
2021/11/04 10:31:43;;;;;;;35.05;18.17;;;;;;;7.13;nan;99475.00;5048021;28;20497;-77
2021/11/04 10:34:15;;;;;;;39.83;21.48;;;;;;;7.20;nan;99473.41;5048464;28;20064;-77
2021/11/04 10:36:45;;;;;;;38.15;19.45;;;;;;;7.24;nan;99472.09;5049507;28;20041;-77
2021/11/04 10:39:11;;;;;;;47.42;25.10;;;;;;;7.18;nan;99485.88;5048723;28;20049;-77
2021/11/04 10:41:39;;;;;;;41.05;21.48;;;;;;;7.20;nan;99476.03;5048363;28;20041;-77
2021/11/04 10:44:12;;;;;;;29.52;17.30;;;;;;;7.19;nan;99482.25;5049060;28;20029;-77
2021/11/04 10:46:46;;;;;;;30.20;17.98;;;;;;;7.20;nan;99487.38;5043255;28;20040;-77
2021/11/04 10:49:13;;;;;;;34.42;17.42;;;;;;;7.21;nan;99482.94;5049200;28;20045;-77
2021/11/04 10:51:39;;;;;;;30.83;16.02;;;;;;;7.23;nan;99489.69;5049171;28;20060;-77
2021/11/04 10:54:10;;;;;;;37.20;18.30;;;;;;;7.25;nan;99486.91;5047399;28;20086;-77
2021/11/04 10:56:37;;;;;;;29.13;16.33;;;;;;;7.26;nan;99493.00;5047667;28;20033;-77
2021/11/04 10:59:08;;;;;;;26.95;15.30;;;;;;;7.27;nan;99497.25;5046887;28;20036;-77
2021/11/04 11:01:37;;;;;;;;;;;;;;;7.31;nan;99501.22;5050046;28;21865;-78
2021/11/04 11:04:13;;;;;;;24.70;14.40;;;;;;;7.26;nan;99499.06;5049272;28;19928;-77
2021/11/04 11:06:43;;;;;;;32.15;15.25;;;;;;;7.23;nan;99500.19;5049291;28;20060;-77
2021/11/04 11:09:12;;;;;;;37.40;14.23;;;;;;;7.27;nan;99499.88;5049135;28;20413;-77
2021/11/04 11:11:38;;;;;;;29.98;13.68;;;;;;;7.26;nan;99508.75;5048470;28;20059;-77
2021/11/04 11:14:05;;;;;;;26.08;13.30;;;;;;;7.32;nan;99508.97;5047688;28;20033;-77
2021/11/04 11:16:31;;;;;;;22.67;12.68;;;;;;;7.39;nan;99515.25;5048476;28;20073;-77
2021/11/04 11:19:00;;;;;;;20.55;12.90;;;;;;;7.48;nan;99520.56;5046817;28;20125;-77
2021/11/04 11:21:32;;;;;;;17.30;11.23;;;;;;;7.45;nan;99522.50;5048822;28;20107;-77
2021/11/04 11:23:59;;;;;;;17.98;10.75;;;;;;;7.55;nan;99524.19;5047431;28;20032;-78
2021/11/04 11:26:25;;;;;;;21.05;11.20;;;;;;;7.58;nan;99530.00;5048275;28;20485;-78
2021/11/04 11:28:54;;;;;;;18.95;11.02;;;;;;;7.59;nan;99530.81;5048890;28;20120;-78
2021/11/04 11:31:21;;;;;;;19.25;10.73;;;;;;;7.62;nan;99535.75;5047371;28;20037;-77
2021/11/04 11:34:09;;;;;;;16.55;10.65;;;;;;;7.60;nan;99538.56;5050070;28;20055;-77
2021/11/04 11:36:34;;;;;;;15.80;10.35;;;;;;;7.59;nan;99541.34;5051825;28;20486;-77
2021/11/04 11:39:04;;;;;;;16.00;10.50;;;;;;;7.65;nan;99545.94;5051382;28;20128;-78
2021/11/04 11:41:31;;;;;;;18.02;11.20;;;;;;;7.72;nan;99539.06;5047731;28;20128;-77
2021/11/04 11:44:00;;;;;;;16.80;10.98;;;;;;;7.81;nan;99550.47;5052453;28;20044;-78
2021/11/04 11:46:25;;;;;;;14.38;10.15;;;;;;;7.84;nan;99553.63;5051214;28;20044;-78
2021/11/04 11:49:09;;;;;;;17.98;10.13;;;;;;;7.94;nan;99557.94;5051572;28;20037;-78
2021/11/04 11:51:53;;;;;;;14.30;9.13;;;;;;;8.01;nan;99557.16;5045526;28;20733;-78
2021/11/04 11:54:19;;;;;;;14.18;9.27;;;;;;;8.06;nan;99560.13;5050936;28;20033;-78
2021/11/04 11:57:07;;;;;;;13.85;9.07;;;;;;;8.03;nan;99562.25;5052285;28;20111;-78